createdAt,value
2023-09-23T00:00:51.150Z,24.70
2023-09-23T00:03:18.451Z,24.70
2023-09-23T00:05:45.684Z,24.70
2023-09-23T00:08:12.886Z,24.60
2023-09-23T00:10:40.456Z,24.60
2023-09-23T00:13:08.464Z,24.70
2023-09-23T00:15:36.757Z,24.60
2023-09-23T00:18:03.851Z,24.70
2023-09-23T00:20:31.151Z,24.60
2023-09-23T00:22:58.136Z,24.60
2023-09-23T00:25:25.384Z,24.60
2023-09-23T00:27:55.566Z,24.70
2023-09-23T00:30:26.407Z,24.60
2023-09-23T00:32:54.117Z,24.70
2023-09-23T00:35:23.118Z,24.70
2023-09-23T00:37:59.046Z,24.60
2023-09-23T00:43:18.802Z,24.70
2023-09-23T00:45:47.149Z,24.70
2023-09-23T00:48:14.127Z,24.70
2023-09-23T00:50:41.125Z,24.60
2023-09-23T00:53:08.890Z,24.60
2023-09-23T00:55:42.543Z,24.70
2023-09-23T00:58:15.975Z,24.70
2023-09-23T01:00:44.981Z,24.70
2023-09-23T01:03:12.399Z,24.70
2023-09-23T01:05:42.361Z,24.70
2023-09-23T01:08:12.855Z,24.70
2023-09-23T01:10:40.232Z,24.70
2023-09-23T01:13:16.346Z,24.60
2023-09-23T01:15:43.174Z,24.70
2023-09-23T01:18:15.600Z,24.60
2023-09-23T01:20:57.308Z,24.70
2023-09-23T01:23:25.182Z,24.70
2023-09-23T01:25:53.049Z,24.70
2023-09-23T01:28:20.242Z,24.70
2023-09-23T01:30:50.285Z,24.60
2023-09-23T01:33:17.233Z,24.70
2023-09-23T01:35:47.228Z,24.70
2023-09-23T01:38:16.974Z,24.70
2023-09-23T01:40:44.867Z,24.60
2023-09-23T01:43:16.529Z,24.60
2023-09-23T01:45:43.604Z,24.70
2023-09-23T01:48:10.567Z,24.70
2023-09-23T01:50:37.424Z,24.70
2023-09-23T01:53:06.521Z,24.70
2023-09-23T01:55:33.514Z,24.70
2023-09-23T01:58:00.536Z,24.60
2023-09-23T02:00:30.530Z,24.70
2023-09-23T02:02:58.525Z,24.70
2023-09-23T02:05:29.024Z,24.70
2023-09-23T02:07:56.312Z,24.70
2023-09-23T02:10:25.732Z,24.70
2023-09-23T02:12:52.984Z,24.60
2023-09-23T02:15:20.341Z,24.60
2023-09-23T02:17:49.215Z,24.70
2023-09-23T02:20:22.659Z,24.60
2023-09-23T02:22:51.698Z,24.70
2023-09-23T02:25:18.874Z,24.60
2023-09-23T02:27:46.931Z,24.60
2023-09-23T02:30:18.439Z,24.60
2023-09-23T02:32:46.421Z,24.60
2023-09-23T02:35:15.592Z,24.60
2023-09-23T02:37:45.709Z,24.60
2023-09-23T02:40:16.557Z,24.60
2023-09-23T02:42:45.415Z,24.60
2023-09-23T02:45:13.658Z,24.60
2023-09-23T02:47:43.973Z,24.60
2023-09-23T02:50:11.817Z,24.60
2023-09-23T02:52:40.310Z,24.60
2023-09-23T02:55:09.285Z,24.60
2023-09-23T02:57:39.077Z,24.60
2023-09-23T03:00:17.495Z,24.70
2023-09-23T03:02:47.068Z,24.60
2023-09-23T03:05:17.477Z,24.70
2023-09-23T03:07:51.643Z,24.60
2023-09-23T03:10:20.936Z,24.70
2023-09-23T03:13:03.452Z,24.60
2023-09-23T03:15:35.600Z,24.60
2023-09-23T03:18:02.705Z,24.70
2023-09-23T03:20:30.001Z,24.60
2023-09-23T03:22:58.488Z,24.60
2023-09-23T03:25:26.445Z,24.60
2023-09-23T03:27:56.526Z,24.70
2023-09-23T03:30:24.434Z,24.60
2023-09-23T03:32:51.492Z,24.70
2023-09-23T03:35:20.226Z,24.60
2023-09-23T03:37:47.846Z,24.60
2023-09-23T03:40:17.204Z,24.70
2023-09-23T03:42:44.123Z,24.60
2023-09-23T03:45:11.932Z,24.60
2023-09-23T03:47:40.152Z,24.60
2023-09-23T03:50:09.032Z,24.60
2023-09-23T03:52:36.060Z,24.60
2023-09-23T03:55:05.213Z,24.60
2023-09-23T03:57:32.154Z,24.60
2023-09-23T03:59:59.197Z,24.60
2023-09-23T04:02:26.652Z,24.60
2023-09-23T04:04:55.366Z,24.60
2023-09-23T04:07:22.400Z,24.60
2023-09-23T04:09:49.339Z,24.60
2023-09-23T04:12:18.601Z,24.60
2023-09-23T04:14:45.694Z,24.60
2023-09-23T04:17:12.610Z,24.60
2023-09-23T04:19:39.654Z,24.60
2023-09-23T04:22:06.565Z,24.60
2023-09-23T04:24:36.655Z,24.60
2023-09-23T04:27:03.587Z,24.60
2023-09-23T04:29:31.425Z,24.60
2023-09-23T04:31:58.290Z,24.60
2023-09-23T04:34:27.958Z,24.60
2023-09-23T04:36:54.765Z,24.60
2023-09-23T04:39:21.633Z,24.60
2023-09-23T04:41:48.506Z,24.70
2023-09-23T04:44:15.342Z,24.60
2023-09-23T04:46:42.216Z,24.70
2023-09-23T04:49:09.140Z,24.60
2023-09-23T04:51:36.007Z,24.60
2023-09-23T04:54:03.192Z,24.60
2023-09-23T04:56:29.993Z,24.60
2023-09-23T04:58:59.889Z,24.60
2023-09-23T05:01:27.926Z,24.70
2023-09-23T05:03:56.681Z,24.60
2023-09-23T05:06:23.572Z,24.60
2023-09-23T05:08:50.369Z,24.60
2023-09-23T05:11:18.532Z,24.60
2023-09-23T05:13:45.484Z,24.70
2023-09-23T05:16:12.845Z,24.60
2023-09-23T05:18:41.131Z,24.60
2023-09-23T05:21:10.553Z,24.60
2023-09-23T05:23:38.546Z,24.60
2023-09-23T05:26:09.359Z,24.60
2023-09-23T05:28:36.228Z,24.60
2023-09-23T05:31:04.927Z,24.70
2023-09-23T05:33:33.786Z,24.70
2023-09-23T05:36:00.733Z,24.70
2023-09-23T05:38:28.318Z,24.70
2023-09-23T05:40:55.164Z,24.70
2023-09-23T05:43:22.032Z,24.70
2023-09-23T05:45:48.830Z,24.70
2023-09-23T05:48:16.583Z,24.70
2023-09-23T05:50:44.203Z,24.70
2023-09-23T05:53:13.646Z,24.70
2023-09-23T05:55:41.684Z,24.70
2023-09-23T05:58:10.090Z,24.70
2023-09-23T06:00:38.255Z,24.70
2023-09-23T06:03:05.275Z,24.80
2023-09-23T06:05:32.643Z,24.70
2023-09-23T06:07:59.501Z,24.70
2023-09-23T06:10:27.454Z,24.70
2023-09-23T06:12:54.786Z,24.70
2023-09-23T06:15:21.616Z,24.70
2023-09-23T06:17:48.718Z,24.70
2023-09-23T06:20:16.748Z,24.70
2023-09-23T06:22:43.598Z,24.70
2023-09-23T06:25:12.143Z,24.70
2023-09-23T06:27:39.004Z,24.70
2023-09-23T06:30:08.810Z,24.70
2023-09-23T06:32:36.541Z,24.70
2023-09-23T06:35:04.108Z,24.70
2023-09-23T06:37:30.937Z,24.70
2023-09-23T06:39:57.868Z,24.70
2023-09-23T06:42:24.745Z,24.70
2023-09-23T06:44:52.309Z,24.70
2023-09-23T06:47:19.214Z,24.70
2023-09-23T06:49:46.101Z,24.70
2023-09-23T06:52:14.327Z,24.70
2023-09-23T06:54:41.159Z,24.70
2023-09-23T06:57:07.950Z,24.70
2023-09-23T06:59:36.183Z,24.70
2023-09-23T07:02:03.643Z,24.70
2023-09-23T07:04:31.398Z,24.70
2023-09-23T07:06:58.443Z,24.60
2023-09-23T07:09:25.389Z,24.70
2023-09-23T07:11:54.847Z,24.60
2023-09-23T07:14:22.974Z,24.60
2023-09-23T07:16:50.237Z,24.60
2023-09-23T07:19:17.049Z,24.60
2023-09-23T07:21:45.966Z,24.60
2023-09-23T07:24:14.021Z,24.70
2023-09-23T07:26:41.084Z,24.60
2023-09-23T07:29:07.972Z,24.60
2023-09-23T07:31:35.967Z,24.70
2023-09-23T07:34:03.259Z,24.70
2023-09-23T07:36:30.590Z,24.60
2023-09-23T07:38:57.425Z,24.70
2023-09-23T07:41:24.328Z,24.60
2023-09-23T07:43:52.236Z,24.60
2023-09-23T07:46:19.808Z,24.60
2023-09-23T07:48:47.848Z,24.60
2023-09-23T07:51:14.862Z,24.60
2023-09-23T07:53:41.939Z,24.60
2023-09-23T07:56:08.795Z,24.60
2023-09-23T07:58:36.774Z,24.60
2023-09-23T08:01:05.108Z,24.60
2023-09-23T08:03:34.779Z,24.60
2023-09-23T08:06:01.799Z,24.60
2023-09-23T08:08:29.536Z,24.60
2023-09-23T08:10:56.476Z,24.60
2023-09-23T08:13:27.478Z,24.60
2023-09-23T08:16:00.663Z,24.60
2023-09-23T08:18:27.769Z,24.60
2023-09-23T08:20:58.338Z,24.60
2023-09-23T08:23:29.680Z,24.60
2023-09-23T08:25:57.960Z,24.60
2023-09-23T08:28:24.872Z,24.60
2023-09-23T08:30:54.430Z,24.60
2023-09-23T08:33:21.457Z,24.60
2023-09-23T08:35:49.365Z,24.60
2023-09-23T08:38:18.547Z,24.60
2023-09-23T08:40:46.012Z,24.60
2023-09-23T08:43:13.187Z,24.60
2023-09-23T08:45:47.467Z,24.60
2023-09-23T08:48:14.618Z,24.60
2023-09-23T08:50:46.319Z,24.60
2023-09-23T08:53:15.705Z,24.60
2023-09-23T08:55:43.974Z,24.60
2023-09-23T08:58:10.949Z,24.60
2023-09-23T09:01:00.792Z,24.70
2023-09-23T09:03:30.637Z,24.70
2023-09-23T09:05:58.126Z,24.70
2023-09-23T09:08:25.193Z,24.60
2023-09-23T09:10:52.677Z,24.80
2023-09-23T09:13:20.980Z,24.90
2023-09-23T09:15:47.866Z,25.10
2023-09-23T09:18:18.373Z,25.20
2023-09-23T09:20:45.228Z,25.20
2023-09-23T09:23:16.151Z,25.30
2023-09-23T09:25:49.323Z,25.40
2023-09-23T09:28:19.124Z,25.40
2023-09-23T09:30:54.323Z,25.40
2023-09-23T09:33:25.577Z,25.50
2023-09-23T09:35:55.773Z,25.50
2023-09-23T09:38:29.058Z,25.50
2023-09-23T09:41:06.426Z,25.50
2023-09-23T09:43:34.963Z,25.60
2023-09-23T09:46:10.272Z,25.60
2023-09-23T09:48:43.854Z,25.60
2023-09-23T09:51:15.332Z,25.60
2023-09-23T09:53:42.702Z,25.70
2023-09-23T09:56:10.353Z,25.70
2023-09-23T09:58:42.253Z,25.70
2023-09-23T10:01:13.192Z,25.70
2023-09-23T10:03:52.660Z,25.70
2023-09-23T10:06:21.631Z,25.80
2023-09-23T10:08:52.918Z,25.80
2023-09-23T10:11:29.901Z,25.80
2023-09-23T10:13:56.748Z,25.80
2023-09-23T10:16:28.988Z,25.80
2023-09-23T10:18:57.008Z,25.80
2023-09-23T10:21:29.233Z,25.80
2023-09-23T10:24:01.739Z,25.80
2023-09-23T10:26:30.509Z,25.80
2023-09-23T10:29:05.567Z,25.90
2023-09-23T10:31:33.340Z,25.90
2023-09-23T10:34:08.952Z,25.90
2023-09-23T10:36:38.338Z,25.90
2023-09-23T10:39:10.535Z,25.90
2023-09-23T10:41:38.435Z,25.90
2023-09-23T10:44:06.405Z,25.90
2023-09-23T10:46:35.354Z,25.90
2023-09-23T10:49:02.996Z,25.90
2023-09-23T10:51:30.420Z,25.90
2023-09-23T10:53:58.717Z,25.90
2023-09-23T10:56:29.198Z,25.90
2023-09-23T10:58:56.381Z,26.00
2023-09-23T11:01:23.422Z,26.00
2023-09-23T11:03:52.924Z,25.90
2023-09-23T11:06:19.841Z,26.00
2023-09-23T11:08:47.909Z,26.00
2023-09-23T11:11:17.126Z,26.00
2023-09-23T11:13:44.416Z,26.00
2023-09-23T11:16:11.820Z,26.00
2023-09-23T11:18:39.668Z,26.00
2023-09-23T11:21:08.734Z,26.00
2023-09-23T11:23:35.942Z,26.10
2023-09-23T11:26:03.542Z,26.00
2023-09-23T11:28:31.209Z,26.00
2023-09-23T11:30:58.493Z,26.00
2023-09-23T11:33:29.430Z,26.00
2023-09-23T11:35:58.963Z,26.00
2023-09-23T11:38:25.892Z,26.10
2023-09-23T11:40:52.819Z,26.10
2023-09-23T11:43:21.920Z,26.10
2023-09-23T11:45:50.115Z,26.00
2023-09-23T11:48:20.457Z,26.10
2023-09-23T11:50:47.932Z,25.90
2023-09-23T11:53:15.103Z,25.70
2023-09-23T11:55:43.228Z,25.70
2023-09-23T11:58:11.225Z,25.60
2023-09-23T12:00:41.510Z,25.50
2023-09-23T12:03:08.342Z,25.40
2023-09-23T12:05:35.434Z,25.40
2023-09-23T12:08:02.656Z,25.40
2023-09-23T12:10:30.787Z,25.30
2023-09-23T12:13:04.695Z,25.30
2023-09-23T12:15:33.556Z,25.20
2023-09-23T12:18:03.079Z,25.20
2023-09-23T12:20:30.420Z,25.20
2023-09-23T12:23:02.601Z,25.20
2023-09-23T12:25:35.291Z,25.20
2023-09-23T12:28:02.136Z,25.10
2023-09-23T12:30:30.406Z,25.10
2023-09-23T12:32:57.244Z,25.10
2023-09-23T12:35:25.254Z,25.10
2023-09-23T12:37:52.142Z,25.10
2023-09-23T12:40:21.623Z,25.10
2023-09-23T12:42:48.431Z,25.00
2023-09-23T12:45:17.950Z,25.00
2023-09-23T12:47:56.122Z,25.00
2023-09-23T12:50:26.126Z,25.00
2023-09-23T12:52:56.912Z,25.00
2023-09-23T12:55:24.482Z,25.00
2023-09-23T12:57:56.377Z,24.90
2023-09-23T13:00:23.441Z,24.90
2023-09-23T13:02:51.434Z,24.90
2023-09-23T13:05:18.459Z,24.90
2023-09-23T13:07:47.140Z,24.90
2023-09-23T13:10:16.206Z,24.90
2023-09-23T13:12:43.144Z,24.90
2023-09-23T13:15:12.267Z,24.90
2023-09-23T13:17:39.263Z,24.90
2023-09-23T13:20:06.973Z,24.90
2023-09-23T13:22:34.321Z,24.90
2023-09-23T13:25:01.260Z,24.90
2023-09-23T13:27:28.310Z,24.90
2023-09-23T13:29:55.737Z,24.90
2023-09-23T13:32:22.705Z,24.80
2023-09-23T13:34:50.394Z,24.90
2023-09-23T13:37:17.350Z,24.80
2023-09-23T13:39:44.260Z,24.80
2023-09-23T13:42:12.511Z,24.80
2023-09-23T13:44:39.322Z,24.80
2023-09-23T13:47:06.297Z,24.80
2023-09-23T13:49:33.088Z,24.80
2023-09-23T13:52:01.945Z,24.80
2023-09-23T13:54:31.283Z,24.80
2023-09-23T13:56:58.211Z,24.80
2023-09-23T13:59:25.039Z,24.80
2023-09-23T14:01:51.878Z,24.80
2023-09-23T14:04:18.897Z,24.80
2023-09-23T14:06:46.471Z,24.80
2023-09-23T14:09:17.060Z,24.80
2023-09-23T14:11:44.974Z,24.80
2023-09-23T14:14:11.966Z,24.80
2023-09-23T14:16:38.848Z,24.70
2023-09-23T14:19:07.153Z,24.70
2023-09-23T14:21:34.053Z,24.70
2023-09-23T14:24:00.871Z,24.70
2023-09-23T14:26:27.691Z,24.70
2023-09-23T14:28:55.868Z,24.70
2023-09-23T14:31:22.868Z,24.70
2023-09-23T14:33:51.005Z,24.70
2023-09-23T14:36:17.776Z,24.70
2023-09-23T14:38:47.309Z,24.70
2023-09-23T14:41:14.478Z,24.70
2023-09-23T14:43:43.536Z,24.70
2023-09-23T14:46:10.455Z,24.70
2023-09-23T14:48:37.232Z,24.70
2023-09-23T14:51:04.305Z,24.70
2023-09-23T14:53:31.260Z,24.70
2023-09-23T14:55:58.300Z,24.70
2023-09-23T14:58:25.553Z,24.70
2023-09-23T15:00:52.438Z,24.60
2023-09-23T15:03:21.421Z,24.60
2023-09-23T15:05:48.631Z,24.60
2023-09-23T15:08:16.149Z,24.60
2023-09-23T15:10:43.100Z,24.60
2023-09-23T15:13:10.904Z,24.60
2023-09-23T15:15:38.277Z,24.60
2023-09-23T15:18:06.732Z,24.60
2023-09-23T15:20:33.821Z,24.60
2023-09-23T15:23:03.166Z,24.60
2023-09-23T15:25:30.048Z,24.60
2023-09-23T15:27:57.044Z,24.60
2023-09-23T15:30:26.655Z,24.50
2023-09-23T15:32:54.955Z,24.60
2023-09-23T15:35:24.524Z,24.60
2023-09-23T15:37:51.460Z,24.60
2023-09-23T15:40:18.863Z,24.60
2023-09-23T15:42:46.353Z,24.50
2023-09-23T15:45:15.338Z,24.50
2023-09-23T15:47:47.061Z,24.50
2023-09-23T15:50:15.159Z,24.50
2023-09-23T15:52:43.660Z,24.50
2023-09-23T15:55:12.478Z,24.50
2023-09-23T15:57:40.428Z,24.50
2023-09-23T16:00:08.147Z,24.50
2023-09-23T16:02:36.450Z,24.50
2023-09-23T16:05:04.367Z,24.50
2023-09-23T16:07:32.584Z,24.50
2023-09-23T16:09:59.422Z,24.50
2023-09-23T16:12:26.580Z,24.50
2023-09-23T16:14:54.644Z,24.50
2023-09-23T16:17:21.546Z,24.50
2023-09-23T16:19:50.841Z,24.50
2023-09-23T16:22:20.187Z,24.50
2023-09-23T16:24:49.707Z,24.50
2023-09-23T16:27:17.308Z,24.50
2023-09-23T16:29:44.571Z,24.50
2023-09-23T16:32:11.823Z,24.50
2023-09-23T16:34:38.876Z,24.50
2023-09-23T16:37:13.512Z,24.50
2023-09-23T16:39:44.009Z,24.50
2023-09-23T16:42:11.178Z,24.50
2023-09-23T16:44:38.309Z,24.50
2023-09-23T16:47:05.319Z,24.50
2023-09-23T16:49:32.440Z,24.50
2023-09-23T16:52:00.013Z,24.50
2023-09-23T16:54:28.108Z,24.50
2023-09-23T16:56:56.422Z,24.50
2023-09-23T16:59:24.042Z,24.50
2023-09-23T17:01:53.570Z,24.50
2023-09-23T17:04:20.480Z,24.50
2023-09-23T17:06:47.607Z,24.50
2023-09-23T17:09:14.622Z,24.50
2023-09-23T17:11:43.258Z,24.50
2023-09-23T17:14:11.664Z,24.50
2023-09-23T17:16:38.595Z,24.50
2023-09-23T17:19:05.643Z,24.50
2023-09-23T17:21:32.802Z,24.50
2023-09-23T17:24:00.811Z,24.50
2023-09-23T17:26:28.004Z,24.50
2023-09-23T17:29:00.783Z,24.50
2023-09-23T17:31:28.456Z,24.40
2023-09-23T17:33:56.614Z,24.40
2023-09-23T17:36:25.897Z,24.40
2023-09-23T17:38:54.705Z,24.40
2023-09-23T17:41:23.210Z,24.40
2023-09-23T17:43:50.191Z,24.40
2023-09-23T17:46:17.253Z,24.40
2023-09-23T17:48:45.086Z,24.40
2023-09-23T17:51:12.096Z,24.40
2023-09-23T17:53:39.107Z,24.40
2023-09-23T17:56:06.118Z,24.40
2023-09-23T17:58:33.094Z,24.40
2023-09-23T18:01:00.813Z,24.40
2023-09-23T18:03:32.592Z,24.40
2023-09-23T18:06:02.574Z,24.40
2023-09-23T18:08:31.974Z,24.50
2023-09-23T18:10:59.134Z,24.50
2023-09-23T18:13:29.903Z,24.50
2023-09-23T18:15:58.273Z,24.50
2023-09-23T18:18:29.580Z,24.50
2023-09-23T18:20:57.658Z,24.50
2023-09-23T18:23:27.493Z,24.50
2023-09-23T18:25:54.812Z,24.50
2023-09-23T18:28:21.993Z,24.50
2023-09-23T18:30:52.109Z,24.50
2023-09-23T18:33:21.407Z,24.50
2023-09-23T18:35:56.264Z,24.50
2023-09-23T18:38:24.426Z,24.50
2023-09-23T18:40:53.710Z,24.50
2023-09-23T18:43:22.527Z,24.50
2023-09-23T18:45:50.647Z,24.50
2023-09-23T18:48:27.000Z,24.50
2023-09-23T18:50:56.285Z,24.50
2023-09-23T18:53:23.350Z,24.50
2023-09-23T18:55:52.962Z,24.50
2023-09-23T18:58:21.162Z,24.50
2023-09-23T19:00:49.320Z,24.50
2023-09-23T19:03:18.900Z,24.50
2023-09-23T19:05:47.582Z,24.50
2023-09-23T19:08:26.796Z,24.50
2023-09-23T19:10:55.821Z,24.50
2023-09-23T19:13:23.418Z,24.50
2023-09-23T19:15:52.440Z,24.50
2023-09-23T19:18:19.818Z,24.50
2023-09-23T19:20:48.588Z,24.50
2023-09-23T19:23:16.346Z,24.50
2023-09-23T19:25:43.367Z,24.50
2023-09-23T19:28:14.370Z,24.50
2023-09-23T19:30:41.312Z,24.50
2023-09-23T19:33:09.596Z,24.50
2023-09-23T19:35:39.998Z,24.50
2023-09-23T19:38:27.141Z,24.50
2023-09-23T19:40:54.225Z,24.50
2023-09-23T19:43:22.458Z,24.50
2023-09-23T19:45:55.458Z,24.50
2023-09-23T19:48:23.439Z,24.50
2023-09-23T19:50:51.156Z,24.40
2023-09-23T19:53:21.610Z,24.50
2023-09-23T19:55:49.184Z,24.50
2023-09-23T19:58:20.375Z,24.40
2023-09-23T20:00:49.169Z,24.50
2023-09-23T20:03:19.205Z,24.50
2023-09-23T20:05:50.137Z,24.50
2023-09-23T20:08:20.072Z,24.60
2023-09-23T20:10:47.822Z,24.70
2023-09-23T20:13:17.048Z,24.90
2023-09-23T20:15:44.098Z,25.00
2023-09-23T20:18:12.658Z,25.10
2023-09-23T20:20:39.836Z,25.10
2023-09-23T20:23:06.973Z,24.90
2023-09-23T20:25:38.995Z,24.80
2023-09-23T20:28:06.164Z,24.70
2023-09-23T20:33:18.674Z,24.60
2023-09-23T20:35:49.557Z,24.60
2023-09-23T20:38:18.207Z,24.60
2023-09-23T20:40:48.370Z,24.60
2023-09-23T20:43:15.413Z,24.60
2023-09-23T20:45:43.001Z,24.50
2023-09-23T20:48:12.095Z,24.50
2023-09-23T20:50:39.621Z,24.50
2023-09-23T20:53:10.078Z,24.50
2023-09-23T20:55:36.987Z,24.50
2023-09-23T20:58:05.130Z,24.50
2023-09-23T21:00:32.006Z,24.50
2023-09-23T21:03:00.591Z,24.50
2023-09-23T21:05:27.877Z,24.50
2023-09-23T21:07:54.894Z,24.50
2023-09-23T21:10:22.453Z,24.50
2023-09-23T21:12:49.750Z,24.50
2023-09-23T21:15:18.074Z,24.50
2023-09-23T21:17:47.295Z,24.50
2023-09-23T21:20:17.123Z,24.50
2023-09-23T21:22:48.677Z,24.70
2023-09-23T21:25:17.934Z,25.00
2023-09-23T21:27:44.910Z,24.90
2023-09-23T21:30:15.023Z,24.80
2023-09-23T21:32:42.394Z,24.70
2023-09-23T21:35:09.545Z,24.70
2023-09-23T21:37:37.609Z,24.70
2023-09-23T21:40:08.694Z,24.70
2023-09-23T21:42:36.194Z,24.70
2023-09-23T21:45:03.673Z,24.70
2023-09-23T21:47:32.166Z,24.70
2023-09-23T21:50:02.170Z,24.70
2023-09-23T21:52:30.580Z,24.60
2023-09-23T21:54:57.547Z,24.60
2023-09-23T21:57:26.474Z,24.60
2023-09-23T21:59:53.576Z,24.60
2023-09-23T22:02:23.520Z,24.60
2023-09-23T22:04:52.664Z,24.60
2023-09-23T22:07:19.534Z,24.60
2023-09-23T22:09:47.973Z,24.60
2023-09-23T22:12:16.058Z,24.60
2023-09-23T22:14:46.332Z,24.60
2023-09-23T22:17:15.369Z,24.60
2023-09-23T22:19:42.879Z,24.60
2023-09-23T22:22:17.260Z,24.60
2023-09-23T22:24:44.278Z,24.60
2023-09-23T22:27:13.338Z,24.60
2023-09-23T22:29:40.247Z,24.60
2023-09-23T22:32:09.574Z,24.60
2023-09-23T22:34:36.662Z,24.60
2023-09-23T22:37:03.583Z,24.60
2023-09-23T22:39:30.737Z,24.60
2023-09-23T22:41:57.691Z,24.60
2023-09-23T22:44:24.799Z,24.60
2023-09-23T22:46:51.840Z,24.60
2023-09-23T22:49:18.773Z,24.60
2023-09-23T22:51:45.894Z,24.60
2023-09-23T22:54:13.174Z,24.60
2023-09-23T22:56:40.864Z,24.60
2023-09-23T22:59:07.828Z,24.60
2023-09-23T23:01:34.916Z,24.60
2023-09-23T23:04:01.976Z,24.60
2023-09-23T23:06:30.115Z,24.60
2023-09-23T23:08:57.831Z,24.60
2023-09-23T23:11:25.397Z,24.60
2023-09-23T23:13:53.648Z,24.50
2023-09-23T23:16:21.617Z,24.60
2023-09-23T23:18:48.924Z,24.60
2023-09-23T23:21:16.585Z,24.60
2023-09-23T23:23:43.852Z,24.60
2023-09-23T23:26:10.960Z,24.60
2023-09-23T23:28:38.932Z,24.60
2023-09-23T23:31:06.074Z,24.60
2023-09-23T23:33:33.369Z,24.60
2023-09-23T23:36:04.058Z,24.60
2023-09-23T23:38:31.938Z,24.60
2023-09-23T23:40:59.780Z,24.60
2023-09-23T23:43:27.485Z,24.60
2023-09-23T23:46:02.272Z,24.60
2023-09-23T23:48:32.687Z,24.50
2023-09-23T23:51:07.933Z,24.50
2023-09-23T23:53:35.728Z,24.50
2023-09-23T23:56:07.275Z,24.50
2023-09-23T23:58:34.984Z,24.50
